Buffaloville, Indiana
Current Conditions -  °F | °C
As of 6:55 PM on Friday 19 Dec 2014 (Local Time) from KHNB Reporting Station
Clear Clear  
Wind Chill: 21°   Ceiling: Unl
Heat Index: 28°   Visibility: 10mi
Dew Point: 21°   Wind: 7mph
Humidity: 74%   Direction: 50°NE
Pressure: 30.28"   Gusts: NA
Location:  38.0467°N, 86.9637°W
Report Text: KHNB 200055Z AUTO 05006KT 10SM CLR M02/M06 A3028 RMK AO1
Loading
Personal Weather Stations






























Interactive Weather Map New forecast layout! Learn more

10-Day Weather Forecast

Advertisements
Track Severe Weather on mobile